Flight Number: EUR2194 Duration: 1:15
Departure: Beograd/Belgrade (LYBE) at 21:15 Distance: 411 Nm
Arrival: Munich Int'l (EDDM) at 22:30 Equipment: B737

Weather Information
Beograd / Surcin, Serbia and Montenegro (LYBE) 44-49N 020-17E 99M Aug 17, 2018 - 05:00 PM EDT / 2018.08.17 2100 UTC
Wind: from the ENE (070 degrees) at 3 MPH (3 KT) (direction variable):0
Visibility: greater than 7 mile(s):0 Temperature: 75 F (24 C) Dew Point: 59 F (15 C) Relative Humidity: 57% Pressure (altimeter): 29.97 in. Hg (1015 hPa)
ob: LYBE 172100Z 07003KT 010V090 CAVOK 24/15 Q1015 NOSIG cycle: 21
Sunrise: 03:47 Sunset: 17:38 (UTC)

Munchen, Germany (EDDM) 48-21N 011-47E Aug 17, 2018 - 04:50 PM EDT / 2018.08.17 2050 UTC
Wind: from the E (090 degrees) at 3 MPH (3 KT):0
Visibility: greater than 7 mile(s):0 Temperature: 60 F (16 C) Dew Point: 57 F (14 C) Relative Humidity: 87% Pressure (altimeter): 30.03 in. Hg (1017 hPa)
ob: EDDM 172050Z 09003KT CAVOK 16/14 Q1017 NOSIG cycle: 21
Sunrise: 04:14 Sunset: 18:19 (UTC)

TAF:2018/08/17 18:27 TAF EDDM 171700Z 1718/1824 VRB03KT CAVOK BECMG 1718/1720 27005KT BECMG 1812/1815 33005KT PROB30 TEMPO 1815/1820 TSRA BKN050CB

Previous Pireps for this route
Date Aircraft Flight time Fuel used Landing rate On time
2013-10-30B73701.248538-200Yes
2014-02-21B73701.4411407-291No
2016-01-18B73701.147400-302Yes
(pireps marked green are flown by you)

Route map